Time;durP1;ratioP1;P1;durP2;ratioP2;P2;SDS_P1;SDS_P2;PMS_P1;PMS_P2;Temp;Humidity;BMP_temperature;BMP_pressure;BME280_temperature;BME280_humidity;BME280_pressure;Samples;Min_cycle;Max_cycle;Signal;HPM_P1;HPM_P2
2021/09/21 00:00:02;;;;;;;7.57;5.60;;;;;;;11.93;75.65;101884.13;694752;28;1150;-53
2021/09/21 00:00:26;;;;;;;8.10;5.60;;;;;;;11.95;77.54;101886.78;695446;28;1195;-53
2021/09/21 00:00:46;;;;;;;7.53;5.63;;;;;;;11.92;76.59;101884.97;694098;28;3626;-52
2021/09/21 00:01:07;;;;;;;6.55;5.40;;;;;;;11.92;76.48;101882.34;694483;28;3408;-53
2021/09/21 00:01:27;;;;;;;7.53;5.50;;;;;;;11.95;76.24;101888.50;694955;28;1369;-54
2021/09/21 00:01:47;;;;;;;6.90;5.67;;;;;;;11.95;76.34;101880.63;694988;28;5878;-53
2021/09/21 00:02:08;;;;;;;7.10;5.50;;;;;;;11.96;77.27;101885.03;696975;28;1075;-54
2021/09/21 00:02:29;;;;;;;6.95;5.60;;;;;;;11.95;77.36;101888.50;697555;28;987;-53
2021/09/21 00:02:49;;;;;;;7.10;5.88;;;;;;;11.93;77.39;101889.34;697373;28;995;-53
2021/09/21 00:03:10;;;;;;;7.20;5.53;;;;;;;11.95;76.37;101885.88;698043;28;1137;-52
2021/09/21 00:03:31;;;;;;;6.63;5.40;;;;;;;11.93;77.21;101885.84;697881;28;1111;-53
2021/09/21 00:03:51;;;;;;;7.78;5.78;;;;;;;11.90;76.53;101885.81;697249;28;3002;-52
2021/09/21 00:04:12;;;;;;;6.95;5.47;;;;;;;11.85;76.47;101883.16;696897;28;5166;-53
2021/09/21 00:04:32;;;;;;;6.77;5.40;;;;;;;11.84;77.08;101884.03;697482;28;1061;-53
2021/09/21 00:04:54;;;;;;;7.23;5.50;;;;;;;11.83;76.60;101882.25;695612;28;4887;-52
2021/09/21 00:05:14;;;;;;;6.93;5.45;;;;;;;11.83;76.27;101882.25;695015;28;1075;-53
2021/09/21 00:05:36;;;;;;;6.90;5.22;;;;;;;11.85;76.87;101877.94;693780;28;1176;-53
2021/09/21 00:05:57;;;;;;;7.60;5.57;;;;;;;11.87;76.39;101876.19;693384;28;949;-56
2021/09/21 00:06:17;;;;;;;7.00;5.73;;;;;;;11.88;77.11;101871.81;694451;28;1146;-55
2021/09/21 00:06:38;;;;;;;7.22;5.70;;;;;;;11.85;77.09;101877.03;694704;28;1130;-51
2021/09/21 00:06:58;;;;;;;6.87;5.53;;;;;;;11.83;76.52;101884.88;691903;28;3930;-54
2021/09/21 00:07:18;;;;;;;6.00;5.03;;;;;;;11.84;76.59;101878.78;692158;28;1192;-53
2021/09/21 00:07:39;;;;;;;6.57;5.30;;;;;;;11.86;76.49;101879.66;693902;28;1535;-53
2021/09/21 00:08:00;;;;;;;6.60;5.28;;;;;;;11.88;76.46;101882.28;696572;28;4256;-51
2021/09/21 00:08:20;;;;;;;6.83;5.43;;;;;;;11.89;76.97;101886.66;697293;28;1083;-54
2021/09/21 00:08:41;;;;;;;7.40;5.57;;;;;;;11.86;77.01;101873.56;697390;28;1344;-52
2021/09/21 00:09:02;;;;;;;6.90;5.30;;;;;;;11.83;76.50;101878.78;697976;28;1189;-54
2021/09/21 00:09:23;;;;;;;6.75;5.38;;;;;;;11.84;76.81;101872.69;697916;28;1172;-54
2021/09/21 00:09:45;;;;;;;8.52;5.53;;;;;;;11.85;76.74;101872.69;697114;28;1349;-54
2021/09/21 00:10:07;;;;;;;7.85;5.63;;;;;;;11.88;76.12;101872.72;697682;28;3145;-52
2021/09/21 00:10:27;;;;;;;7.55;5.63;;;;;;;11.89;76.17;101869.22;697354;28;3922;-51
2021/09/21 00:10:48;;;;;;;6.93;5.47;;;;;;;11.91;77.09;101874.47;696036;28;4969;-52
2021/09/21 00:11:09;;;;;;;6.43;5.55;;;;;;;11.91;76.74;101870.09;693781;28;1430;-52
2021/09/21 00:11:29;;;;;;;8.15;5.60;;;;;;;11.91;76.17;101864.88;694679;28;1140;-55
2021/09/21 00:11:51;;;;;;;7.70;5.80;;;;;;;11.90;76.95;101873.59;694812;28;992;-54
2021/09/21 00:12:12;;;;;;;7.07;5.55;;;;;;;11.88;76.64;101867.47;695342;28;1972;-51
2021/09/21 00:12:33;;;;;;;7.33;5.50;;;;;;;11.89;76.41;101863.09;694290;28;1087;-55
2021/09/21 00:12:56;;;;;;;6.70;5.28;;;;;;;11.90;76.38;101864.84;694171;28;1257;-53
2021/09/21 00:13:17;;;;;;;6.38;5.15;;;;;;;11.91;76.67;101864.88;694830;28;3355;-55
2021/09/21 00:13:37;;;;;;;6.37;5.23;;;;;;;11.87;77.02;101864.84;693718;28;4310;-52
2021/09/21 00:13:58;;;;;;;6.13;5.28;;;;;;;11.87;76.81;101868.31;696494;28;4957;-54
2021/09/21 00:14:19;;;;;;;7.43;5.53;;;;;;;11.88;76.30;101864.84;697050;28;1224;-54
2021/09/21 00:14:40;;;;;;;7.13;5.53;;;;;;;11.90;76.10;101868.34;696216;28;1273;-53
2021/09/21 00:15:00;;;;;;;7.97;5.57;;;;;;;11.90;78.05;101867.47;697951;28;1082;-53
2021/09/21 00:15:21;;;;;;;7.05;5.60;;;;;;;11.87;78.03;101868.31;699287;28;1176;-54
2021/09/21 00:15:42;;;;;;;6.90;5.50;;;;;;;11.85;77.93;101867.44;698159;28;1161;-52
2021/09/21 00:16:04;;;;;;;7.10;5.38;;;;;;;11.82;77.35;101864.78;697570;28;1280;-52
2021/09/21 00:16:24;;;;;;;6.43;5.03;;;;;;;11.85;76.72;101875.31;697325;28;3499;-52
2021/09/21 00:16:45;;;;;;;7.30;5.20;;;;;;;11.87;77.39;101864.84;696331;28;6087;-52
2021/09/21 00:17:05;;;;;;;6.95;5.45;;;;;;;11.85;77.52;101866.53;694844;28;1507;-51
2021/09/21 00:17:25;;;;;;;7.23;5.87;;;;;;;11.78;76.86;101869.97;695073;28;1277;-52
2021/09/21 00:17:47;;;;;;;7.90;5.40;;;;;;;11.78;77.33;101868.22;694313;28;1095;-53
2021/09/21 00:18:07;;;;;;;6.85;5.28;;;;;;;11.78;77.40;101864.75;694889;28;1292;-53
2021/09/21 00:18:28;;;;;;;7.22;5.80;;;;;;;11.75;77.65;101868.19;695140;28;1375;-52
2021/09/21 00:18:48;;;;;;;6.90;5.53;;;;;;;11.76;76.85;101862.09;694388;28;1085;-53
2021/09/21 00:19:09;;;;;;;7.00;5.60;;;;;;;11.78;77.52;101867.34;694246;28;1075;-52
2021/09/21 00:19:32;;;;;;;7.40;5.65;;;;;;;11.75;76.95;101868.19;693912;28;3209;-52
2021/09/21 00:19:52;;;;;;;7.13;5.28;;;;;;;11.74;77.77;101867.34;694899;28;4557;-51
2021/09/21 00:20:14;;;;;;;7.20;5.70;;;;;;;11.75;77.00;101862.97;697313;28;1460;-54
2021/09/21 00:20:34;;;;;;;7.03;5.45;;;;;;;11.75;77.56;101866.47;698190;28;1537;-52
2021/09/21 00:20:55;;;;;;;6.75;5.60;;;;;;;11.75;77.09;101862.97;697838;28;1208;-53
2021/09/21 00:21:15;;;;;;;7.50;5.83;;;;;;;11.76;76.87;101869.97;697999;28;1070;-55
2021/09/21 00:21:36;;;;;;;8.15;5.88;;;;;;;11.74;76.98;101867.34;697348;28;1046;-52
2021/09/21 00:22:06;;;;;;;7.20;5.50;;;;;;;11.78;76.71;101872.59;697311;28;1074;-53
2021/09/21 00:22:27;;;;;;;8.70;5.65;;;;;;;11.80;79.42;101873.50;697466;28;2665;-55
2021/09/21 00:22:48;;;;;;;7.60;5.43;;;;;;;11.80;78.01;101874.38;695816;28;4593;-52
2021/09/21 00:23:09;;;;;;;6.57;5.20;;;;;;;11.76;79.46;101869.97;694000;28;1418;-53
2021/09/21 00:23:29;;;;;;;7.25;5.35;;;;;;;11.75;77.81;101876.97;693992;28;1407;-52
2021/09/21 00:23:50;;;;;;;6.47;5.10;;;;;;;11.77;77.12;101871.72;694549;28;1559;-52
2021/09/21 00:24:10;;;;;;;6.78;5.25;;;;;;;11.80;78.04;101874.38;695204;28;1841;-53
2021/09/21 00:24:31;;;;;;;7.53;5.63;;;;;;;11.79;78.27;101871.75;695079;28;1074;-52
2021/09/21 00:24:51;;;;;;;7.03;5.55;;;;;;;11.78;78.72;101876.09;694887;28;1189;-53
2021/09/21 00:25:14;;;;;;;7.80;5.50;;;;;;;11.75;78.33;101873.44;694642;28;1231;-54
2021/09/21 00:25:34;;;;;;;8.05;5.78;;;;;;;11.73;78.49;101883.91;694449;28;1216;-54
2021/09/21 00:25:54;;;;;;;7.40;5.60;;;;;;;11.73;77.58;101878.66;695546;28;4712;-54
2021/09/21 00:26:15;;;;;;;6.50;5.43;;;;;;;11.76;77.68;101869.97;697433;28;1790;-51
2021/09/21 00:26:35;;;;;;;7.10;5.30;;;;;;;11.75;79.66;101881.31;697273;28;1371;-54
2021/09/21 00:26:55;;;;;;;7.37;5.47;;;;;;;11.76;77.86;101872.59;697400;28;1113;-55
2021/09/21 00:27:16;;;;;;;6.63;5.55;;;;;;;11.76;79.37;101880.44;696895;28;1122;-53
2021/09/21 00:27:36;;;;;;;7.17;5.70;;;;;;;11.73;78.01;101878.66;696933;28;1621;-53
2021/09/21 00:27:57;;;;;;;7.50;5.53;;;;;;;11.73;77.65;101883.03;697414;28;1434;-54
2021/09/21 00:28:19;;;;;;;6.90;5.28;;;;;;;11.75;77.30;101878.69;694648;28;1407;-53
2021/09/21 00:28:40;;;;;;;6.95;5.40;;;;;;;11.77;79.29;101887.44;691739;28;1444;-53
2021/09/21 00:29:00;;;;;;;8.10;6.00;;;;;;;11.76;79.11;101880.44;690935;28;4708;-53
2021/09/21 00:29:21;;;;;;;8.53;5.97;;;;;;;11.77;78.37;101887.44;691188;28;4183;-52
2021/09/21 00:29:42;;;;;;;8.27;5.63;;;;;;;11.76;77.36;101885.69;689769;28;1268;-57
2021/09/21 00:30:03;;;;;;;7.57;5.33;;;;;;;11.78;78.39;101883.94;691833;28;1471;-52
2021/09/21 00:30:24;;;;;;;7.72;5.75;;;;;;;11.79;78.36;101879.59;695036;28;1118;-51
2021/09/21 00:30:49;;;;;;;7.93;6.00;;;;;;;11.78;77.38;101883.94;694135;28;1224;-53
2021/09/21 00:31:11;;;;;;;7.80;5.82;;;;;;;11.79;77.22;101883.09;695824;28;1208;-54
2021/09/21 00:31:38;;;;;;;7.70;6.10;;;;;;;11.81;76.90;101884.00;696256;28;2433;-53
2021/09/21 00:32:00;;;;;;;7.53;6.13;;;;;;;11.79;78.26;101880.47;696998;28;4293;-52
2021/09/21 00:32:25;;;;;;;7.15;6.03;;;;;;;11.80;77.22;101884.84;696937;28;4424;-53
2021/09/21 00:32:49;;;;;;;6.93;5.78;;;;;;;11.79;77.98;101884.84;696583;28;1167;-52
2021/09/21 00:33:16;;;;;;;8.63;5.85;;;;;;;11.80;77.26;101884.84;697639;28;1086;-52
2021/09/21 00:33:52;;;;;;;6.90;5.63;;;;;;;11.80;77.35;101882.22;696392;28;1278;-55
2021/09/21 00:34:15;;;;;;;6.70;5.85;;;;;;;11.82;77.06;101880.50;697856;28;1189;-52
2021/09/21 00:34:37;;;;;;;7.53;6.00;;;;;;;11.83;76.81;101887.50;697580;28;1090;-51
2021/09/21 00:34:57;;;;;;;8.18;5.85;;;;;;;11.81;78.75;101881.38;694239;28;4918;-53
2021/09/21 00:35:18;;;;;;;8.93;5.80;;;;;;;11.83;77.15;101881.38;694537;28;3895;-53
2021/09/21 00:35:38;;;;;;;7.53;5.57;;;;;;;11.83;77.54;101881.38;693679;28;1383;-55
2021/09/21 00:35:58;;;;;;;6.95;5.85;;;;;;;11.82;76.94;101883.13;694742;28;1297;-52
2021/09/21 00:36:19;;;;;;;7.30;5.73;;;;;;;11.79;77.21;101880.47;694364;28;1154;-53
2021/09/21 00:36:41;;;;;;;6.90;5.80;;;;;;;11.80;76.83;101878.75;694675;28;1086;-53
2021/09/21 00:37:01;;;;;;;7.43;5.68;;;;;;;11.77;77.81;101887.44;694456;28;1265;-51
2021/09/21 00:37:22;;;;;;;7.97;5.67;;;;;;;11.75;77.29;101879.59;694627;28;1039;-55
2021/09/21 00:37:42;;;;;;;8.68;5.70;;;;;;;11.78;77.14;101883.94;694890;28;1224;-55
2021/09/21 00:38:03;;;;;;;6.73;5.70;;;;;;;11.78;77.08;101883.94;695850;28;4410;-52
2021/09/21 00:38:23;;;;;;;7.20;5.65;;;;;;;11.77;77.72;101882.22;694517;28;3211;-52
2021/09/21 00:38:44;;;;;;;7.33;5.73;;;;;;;11.73;78.21;101883.91;693800;28;1297;-53
2021/09/21 00:39:08;;;;;;;6.80;5.55;;;;;;;11.77;77.15;101890.06;694233;28;1607;-54
2021/09/21 00:39:28;;;;;;;6.72;5.72;;;;;;;11.76;78.74;101883.94;695023;28;1157;-54
2021/09/21 00:39:49;;;;;;;7.05;5.70;;;;;;;11.75;77.43;101894.41;694504;28;955;-53
2021/09/21 00:40:10;;;;;;;7.13;5.40;;;;;;;11.77;77.08;101890.06;695442;28;1436;-53
2021/09/21 00:40:31;;;;;;;6.43;5.40;;;;;;;11.78;76.66;101889.19;695696;28;1166;-54
2021/09/21 00:40:51;;;;;;;6.30;5.60;;;;;;;11.80;76.45;101887.47;695803;28;4396;-53
2021/09/21 00:41:13;;;;;;;7.35;5.70;;;;;;;11.82;76.71;101887.47;697767;28;1094;-52
2021/09/21 00:41:38;;;;;;;7.75;5.43;;;;;;;11.81;77.24;101889.25;696341;28;3621;-53
2021/09/21 00:41:59;;;;;;;6.82;5.40;;;;;;;11.76;76.49;101890.94;697048;28;1275;-51
2021/09/21 00:42:25;;;;;;;7.30;5.47;;;;;;;11.73;76.22;101891.78;697058;28;1293;-51
2021/09/21 00:42:46;;;;;;;7.15;5.43;;;;;;;11.76;77.67;101896.16;695646;28;1780;-53
2021/09/21 00:43:06;;;;;;;7.03;5.75;;;;;;;11.77;77.54;101892.69;697609;28;1385;-55
2021/09/21 00:43:27;;;;;;;6.97;5.80;;;;;;;11.76;78.45;101888.31;696923;28;1113;-52
2021/09/21 00:43:47;;;;;;;8.43;5.72;;;;;;;11.77;77.55;101892.69;696150;28;4566;-53
2021/09/21 00:44:08;;;;;;;8.17;5.47;;;;;;;11.79;77.23;101895.31;696877;28;1161;-53
2021/09/21 00:44:29;;;;;;;6.60;5.40;;;;;;;11.79;78.28;101893.56;696849;28;1102;-55
2021/09/21 00:44:57;;;;;;;7.95;5.55;;;;;;;11.80;77.20;101897.09;697586;28;3533;-52
2021/09/21 00:45:24;;;;;;;6.63;5.65;;;;;;;11.75;76.76;101895.31;697189;28;1727;-56
2021/09/21 00:45:44;;;;;;;6.80;5.45;;;;;;;11.76;76.53;101897.03;695874;28;1285;-52
2021/09/21 00:46:05;;;;;;;7.20;5.37;;;;;;;11.78;76.70;101901.41;697836;28;1146;-52
2021/09/21 00:46:25;;;;;;;7.35;5.40;;;;;;;11.73;77.78;101893.53;697590;28;1266;-52
2021/09/21 00:46:46;;;;;;;7.80;5.30;;;;;;;11.72;77.60;101897.00;696731;28;4437;-51
2021/09/21 00:47:09;;;;;;;8.00;5.20;;;;;;;11.70;77.87;101896.97;697746;28;1249;-52
2021/09/21 00:47:32;;;;;;;6.90;5.38;;;;;;;11.70;77.59;101896.97;698006;28;1045;-53
2021/09/21 00:47:54;;;;;;;8.05;5.38;;;;;;;11.72;76.97;101897.00;697161;28;3693;-52
2021/09/21 00:48:14;;;;;;;7.75;5.22;;;;;;;11.74;76.85;101897.88;697508;28;1422;-51
2021/09/21 00:48:34;;;;;;;9.27;5.53;;;;;;;11.73;77.78;101901.38;697198;28;1336;-53
2021/09/21 00:48:55;;;;;;;7.00;5.57;;;;;;;11.74;77.37;101896.16;697688;28;1588;-56
2021/09/21 00:49:15;;;;;;;7.83;5.60;;;;;;;11.82;76.78;101897.97;698088;28;1022;-52
2021/09/21 00:49:37;;;;;;;7.60;5.35;;;;;;;11.81;76.76;101904.06;698090;28;1074;-55
2021/09/21 00:49:57;;;;;;;7.53;5.60;;;;;;;11.82;77.27;101900.59;695475;28;4603;-54
2021/09/21 00:50:19;;;;;;;7.43;5.32;;;;;;;11.81;76.21;101891.84;694570;28;998;-52
2021/09/21 00:50:39;;;;;;;6.40;5.00;;;;;;;11.81;76.67;101898.81;694703;28;1143;-54
2021/09/21 00:51:02;;;;;;;7.90;5.10;;;;;;;11.80;76.55;101903.19;693659;28;3752;-53
2021/09/21 00:51:24;;;;;;;6.90;5.20;;;;;;;11.78;76.02;101901.41;693902;28;1238;-52
2021/09/21 00:51:44;;;;;;;7.30;5.32;;;;;;;11.71;75.68;101909.22;694258;28;1188;-51
2021/09/21 00:52:05;;;;;;;7.57;5.10;;;;;;;11.72;76.97;101908.34;695196;28;3673;-55
2021/09/21 00:52:28;;;;;;;7.60;5.30;;;;;;;11.73;75.75;101904.88;695168;28;1103;-56
2021/09/21 00:52:49;;;;;;;7.70;5.40;;;;;;;11.71;76.33;101908.31;694128;28;4570;-53
2021/09/21 00:53:10;;;;;;;7.20;5.60;;;;;;;11.69;75.41;101917.94;697122;28;1332;-52
2021/09/21 00:53:33;;;;;;;7.65;5.60;;;;;;;11.65;74.69;101913.53;697694;28;1174;-52
2021/09/21 00:53:54;;;;;;;7.47;5.37;;;;;;;11.64;75.76;101914.38;697415;28;3111;-51
2021/09/21 00:54:14;;;;;;;7.50;5.65;;;;;;;11.67;76.02;101922.25;697187;28;3737;-52
2021/09/21 00:54:35;;;;;;;8.02;5.60;;;;;;;11.70;77.68;101922.28;697386;28;1487;-55
2021/09/21 00:54:55;;;;;;;9.03;5.40;;;;;;;11.69;76.61;101924.03;697578;28;1137;-53
2021/09/21 00:55:18;;;;;;;8.63;5.55;;;;;;;11.69;76.87;101921.41;697610;28;1089;-52
2021/09/21 00:55:39;;;;;;;6.60;5.28;;;;;;;11.69;76.42;101921.41;697077;28;1051;-52
2021/09/21 00:55:59;;;;;;;7.83;5.33;;;;;;;11.71;76.88;101924.94;697294;28;4696;-53
2021/09/21 00:56:20;;;;;;;7.07;5.10;;;;;;;11.71;77.22;101922.31;697558;28;1043;-53
2021/09/21 00:56:41;;;;;;;6.78;5.40;;;;;;;11.70;77.55;101932.75;697328;28;1215;-52
2021/09/21 00:57:02;;;;;;;7.07;5.20;;;;;;;11.70;76.32;101928.41;697004;28;2139;-54
2021/09/21 00:57:26;;;;;;;7.80;5.20;;;;;;;11.73;76.53;101935.44;697285;28;4220;-52
2021/09/21 00:57:48;;;;;;;6.90;5.47;;;;;;;11.74;77.42;101929.31;697001;28;1237;-55
2021/09/21 00:58:08;;;;;;;8.38;5.82;;;;;;;11.72;76.14;101931.06;697667;28;1258;-52
2021/09/21 00:58:28;;;;;;;8.13;5.40;;;;;;;11.70;76.43;101928.41;697418;28;1138;-55
2021/09/21 00:58:49;;;;;;;7.18;5.22;;;;;;;11.70;76.80;101928.41;696816;28;4566;-53
2021/09/21 00:59:09;;;;;;;7.77;5.40;;;;;;;11.71;76.46;101929.28;698005;28;1113;-54
2021/09/21 00:59:30;;;;;;;6.73;5.60;;;;;;;11.68;76.15;101927.50;698082;28;1579;-54
2021/09/21 00:59:50;;;;;;;6.65;5.22;;;;;;;11.70;76.90;101925.81;697896;28;961;-52
2021/09/21 01:00:13;;;;;;;7.60;5.43;;;;;;;11.66;78.20;101929.25;697979;28;3485;-54
2021/09/21 01:00:33;;;;;;;7.57;5.45;;;;;;;11.66;77.11;101929.25;697603;28;3455;-52
2021/09/21 01:00:54;;;;;;;7.60;5.32;;;;;;;11.67;76.93;101932.72;697323;28;1187;-56
2021/09/21 01:01:14;;;;;;;7.50;5.47;;;;;;;11.67;76.07;101928.41;697508;28;1286;-52
2021/09/21 01:01:34;;;;;;;8.05;5.30;;;;;;;11.67;75.96;101925.78;697483;28;1512;-53
2021/09/21 01:01:55;;;;;;;7.37;5.53;;;;;;;11.67;76.29;101928.41;697411;28;4422;-54
2021/09/21 01:02:15;;;;;;;7.60;5.43;;;;;;;11.69;76.67;101920.53;697706;28;1099;-52
2021/09/21 01:02:35;;;;;;;7.28;5.40;;;;;;;11.67;77.21;101927.50;697347;28;1047;-52
2021/09/21 01:02:56;;;;;;;6.90;5.10;;;;;;;11.69;76.62;101926.66;698116;28;1014;-51
2021/09/21 01:03:17;;;;;;;7.57;5.40;;;;;;;11.70;76.06;101922.28;697877;28;1150;-55
2021/09/21 01:03:38;;;;;;;7.82;5.28;;;;;;;11.71;75.89;101924.03;697315;28;2628;-51
2021/09/21 01:04:00;;;;;;;8.27;5.45;;;;;;;11.71;76.65;101918.81;697266;28;1382;-52
2021/09/21 01:04:21;;;;;;;6.78;5.20;;;;;;;11.69;76.01;101920.53;696854;28;1510;-53
2021/09/21 01:04:41;;;;;;;6.95;5.20;;;;;;;11.69;76.29;101921.41;696917;28;1464;-54
2021/09/21 01:05:03;;;;;;;6.70;5.40;;;;;;;11.68;76.54;101919.66;697453;28;4335;-54
2021/09/21 01:05:23;;;;;;;7.43;5.35;;;;;;;11.65;76.78;101913.53;697659;28;1280;-54
2021/09/21 01:05:44;;;;;;;7.50;5.40;;;;;;;11.63;76.69;101915.22;696949;28;1128;-52
2021/09/21 01:06:04;;;;;;;8.20;5.68;;;;;;;11.62;76.69;101919.59;697793;28;1039;-52
2021/09/21 01:06:24;;;;;;;7.97;5.47;;;;;;;11.62;75.96;101913.50;697314;28;1161;-55
2021/09/21 01:06:45;;;;;;;6.63;5.03;;;;;;;11.64;76.57;101922.22;696470;28;3566;-52
2021/09/21 01:07:05;;;;;;;8.03;5.43;;;;;;;11.63;77.57;101915.22;697814;28;1258;-52
2021/09/21 01:07:26;;;;;;;8.05;5.30;;;;;;;11.64;77.24;101917.00;697484;28;1127;-52
2021/09/21 01:07:46;;;;;;;7.40;5.47;;;;;;;11.64;76.97;101922.22;696117;28;4623;-54
2021/09/21 01:08:07;;;;;;;7.35;5.47;;;;;;;11.63;77.09;101912.59;695020;28;1316;-53
2021/09/21 01:08:28;;;;;;;7.43;5.50;;;;;;;11.66;77.47;101916.16;695212;28;1264;-54
2021/09/21 01:08:49;;;;;;;7.97;5.30;;;;;;;11.65;77.17;101914.38;694229;28;995;-51
2021/09/21 01:09:20;;;;;;;7.60;5.30;;;;;;;11.67;76.67;101910.06;694439;28;1517;-54
2021/09/21 01:09:42;;;;;;;7.53;5.40;;;;;;;11.66;77.75;101910.00;694323;28;3168;-53
2021/09/21 01:10:06;;;;;;;7.03;5.22;;;;;;;11.67;77.32;101915.28;694189;28;4115;-54
2021/09/21 01:10:29;;;;;;;6.63;5.30;;;;;;;11.64;77.16;101917.00;694131;28;1391;-53
2021/09/21 01:10:49;;;;;;;8.57;5.57;;;;;;;11.65;76.97;101909.16;694283;28;4533;-56
2021/09/21 01:11:13;;;;;;;6.57;5.40;;;;;;;11.68;76.87;101913.53;698117;28;1275;-52
2021/09/21 01:11:33;;;;;;;7.10;5.53;;;;;;;11.69;77.45;101915.31;698008;28;1063;-57
2021/09/21 01:11:57;;;;;;;8.23;5.40;;;;;;;11.69;77.87;101910.94;696939;28;1180;-53
2021/09/21 01:12:17;;;;;;;6.72;5.22;;;;;;;11.70;77.17;101907.47;698060;28;1091;-52
2021/09/21 01:12:38;;;;;;;6.60;5.37;;;;;;;11.71;77.53;101908.31;697334;28;1276;-51
2021/09/21 01:12:59;;;;;;;6.80;5.35;;;;;;;11.71;78.07;101910.94;696974;28;3833;-52
2021/09/21 01:13:19;;;;;;;7.10;5.33;;;;;;;11.69;77.70;101912.69;697663;28;1669;-52
2021/09/21 01:13:40;;;;;;;6.83;5.10;;;;;;;11.69;77.35;101915.31;697302;28;1446;-53
2021/09/21 01:14:01;;;;;;;6.53;5.28;;;;;;;11.70;77.87;101919.66;693808;28;4858;-54
2021/09/21 01:14:22;;;;;;;7.40;5.50;;;;;;;11.70;77.00;101912.69;694916;28;1051;-54
2021/09/21 01:14:42;;;;;;;7.97;5.50;;;;;;;11.71;78.25;101909.22;694610;28;1047;-52
2021/09/21 01:15:04;;;;;;;6.82;5.47;;;;;;;11.71;77.76;101911.84;694655;28;1240;-56
2021/09/21 01:15:25;;;;;;;6.93;5.35;;;;;;;11.70;77.54;101911.81;695032;28;1046;-52
2021/09/21 01:15:46;;;;;;;6.88;5.30;;;;;;;11.72;77.06;101915.34;694384;28;1210;-52
2021/09/21 01:16:07;;;;;;;7.15;5.40;;;;;;;11.69;78.00;101912.69;694319;28;3855;-54
2021/09/21 01:16:28;;;;;;;7.32;5.57;;;;;;;11.68;78.67;101916.16;695505;28;1372;-54
2021/09/21 01:16:50;;;;;;;7.47;5.40;;;;;;;11.68;78.03;101908.31;694408;28;5430;-53
2021/09/21 01:17:11;;;;;;;8.20;5.53;;;;;;;11.67;78.32;101915.28;697598;28;1368;-55
2021/09/21 01:17:32;;;;;;;8.40;5.50;;;;;;;11.63;78.75;101916.13;697080;28;1214;-51
2021/09/21 01:17:55;;;;;;;7.85;5.50;;;;;;;11.63;77.91;101916.13;698337;28;1034;-54
2021/09/21 01:18:16;;;;;;;6.90;5.40;;;;;;;11.63;77.84;101916.13;698967;28;1106;-52
2021/09/21 01:18:36;;;;;;;6.55;5.50;;;;;;;11.63;77.14;101920.47;697913;28;1058;-53
2021/09/21 01:18:56;;;;;;;7.87;5.40;;;;;;;11.61;76.72;101912.59;697921;28;1047;-53
2021/09/21 01:19:17;;;;;;;7.38;5.20;;;;;;;11.62;76.74;101916.13;697886;28;3748;-53
2021/09/21 01:19:38;;;;;;;7.57;5.30;;;;;;;11.61;76.99;101922.22;697976;28;1657;-55
2021/09/21 01:19:58;;;;;;;7.13;5.30;;;;;;;11.59;76.91;101920.44;695318;28;4601;-52
2021/09/21 01:20:19;;;;;;;6.85;5.30;;;;;;;11.59;78.22;101920.44;695729;28;1438;-54
2021/09/21 01:20:40;;;;;;;6.50;5.50;;;;;;;11.59;77.74;101923.06;695230;28;1153;-53
2021/09/21 01:21:05;;;;;;;7.40;5.60;;;;;;;11.59;78.25;101924.81;695632;28;1243;-52
2021/09/21 01:21:25;;;;;;;8.43;5.57;;;;;;;11.55;76.71;101925.63;694918;28;1291;-53
2021/09/21 01:21:47;;;;;;;6.85;5.15;;;;;;;11.56;77.45;101914.28;695165;28;1047;-53
2021/09/21 01:22:07;;;;;;;6.60;5.55;;;;;;;11.58;77.13;101923.91;695447;28;1226;-51
2021/09/21 01:22:27;;;;;;;7.03;5.32;;;;;;;11.56;77.08;101920.41;695696;28;4810;-53
2021/09/21 01:22:48;;;;;;;7.50;5.40;;;;;;;11.56;77.05;101917.78;694760;28;4397;-53
2021/09/21 01:23:08;;;;;;;6.93;5.35;;;;;;;11.57;77.26;101914.31;695335;28;1594;-55
2021/09/21 01:23:43;;;;;;;7.50;5.50;;;;;;;11.54;77.69;101919.50;695243;28;1063;-52
2021/09/21 01:24:04;;;;;;;7.25;5.40;;;;;;;11.55;77.16;101929.13;694533;28;1203;-53
2021/09/21 01:24:25;;;;;;;7.18;5.30;;;;;;;11.56;77.25;101915.19;695079;28;1279;-53
2021/09/21 01:24:45;;;;;;;7.55;5.55;;;;;;;11.56;77.25;101923.03;694858;28;1035;-55
2021/09/21 01:25:07;;;;;;;6.77;5.50;;;;;;;11.58;76.84;101923.03;692995;28;1234;-56
2021/09/21 01:25:28;;;;;;;7.55;5.75;;;;;;;11.59;77.46;101922.19;691822;28;3911;-52
2021/09/21 01:25:48;;;;;;;7.47;5.25;;;;;;;11.58;78.60;101918.66;692236;28;4896;-53
2021/09/21 01:26:08;;;;;;;6.93;5.30;;;;;;;11.59;78.53;101917.81;697338;28;1199;-52
2021/09/21 01:26:29;;;;;;;6.90;5.33;;;;;;;11.61;78.10;101916.97;697754;28;1282;-56
2021/09/21 01:26:49;;;;;;;6.27;5.40;;;;;;;11.61;79.79;101919.59;697664;28;979;-52
2021/09/21 01:27:12;;;;;;;6.87;5.40;;;;;;;11.59;78.29;101919.56;698155;28;996;-52
2021/09/21 01:27:33;;;;;;;6.07;5.00;;;;;;;11.61;78.14;101928.31;697786;28;1177;-55
2021/09/21 01:27:53;;;;;;;6.22;5.05;;;;;;;11.59;77.59;101923.06;697570;28;1090;-53
2021/09/21 01:28:15;;;;;;;8.30;5.40;;;;;;;11.61;77.34;101912.59;698341;28;1071;-52
2021/09/21 01:28:35;;;;;;;8.40;5.38;;;;;;;11.62;77.67;101914.34;697011;28;2097;-56
2021/09/21 01:28:56;;;;;;;6.75;5.30;;;;;;;11.63;77.82;101921.38;696514;28;4605;-52
2021/09/21 01:29:16;;;;;;;6.83;5.40;;;;;;;11.66;77.55;101910.91;697872;28;1344;-55
2021/09/21 01:29:36;;;;;;;6.75;5.10;;;;;;;11.65;78.43;101918.75;698275;28;1434;-55
2021/09/21 01:29:57;;;;;;;7.00;5.33;;;;;;;11.65;77.65;101919.63;698368;28;1066;-52
2021/09/21 01:30:17;;;;;;;6.50;5.43;;;;;;;11.68;77.12;101916.16;698289;28;1126;-52
2021/09/21 01:30:37;;;;;;;6.73;5.13;;;;;;;11.69;77.18;101926.66;697719;28;943;-52
2021/09/21 01:30:58;;;;;;;7.17;5.27;;;;;;;11.70;77.75;101917.03;698868;28;1114;-54
2021/09/21 01:31:19;;;;;;;7.32;5.43;;;;;;;11.68;78.73;101918.78;697980;28;1499;-54
2021/09/21 01:31:41;;;;;;;6.32;5.00;;;;;;;11.69;77.97;101918.78;697053;28;3469;-51
2021/09/21 01:32:02;;;;;;;6.60;5.18;;;;;;;11.70;77.40;101923.19;697393;28;4390;-53
2021/09/21 01:32:22;;;;;;;6.57;5.00;;;;;;;11.70;76.98;101922.28;697811;28;1332;-52
2021/09/21 01:32:44;;;;;;;7.43;5.22;;;;;;;11.68;77.71;101917.03;697559;28;1464;-56
2021/09/21 01:33:04;;;;;;;7.90;5.32;;;;;;;11.65;77.33;101922.25;698988;28;1101;-55
2021/09/21 01:33:25;;;;;;;7.60;5.25;;;;;;;11.66;77.11;101910.00;699493;28;1149;-55
2021/09/21 01:33:49;;;;;;;9.03;5.83;;;;;;;11.65;78.31;101924.00;697916;28;1102;-52
2021/09/21 01:34:18;;;;;;;7.13;5.40;;;;;;;11.64;78.13;101922.22;698193;28;1161;-54
2021/09/21 01:34:38;;;;;;;6.70;5.20;;;;;;;11.65;77.82;101924.00;697762;28;966;-52
2021/09/21 01:35:00;;;;;;;6.77;5.27;;;;;;;11.61;79.04;101920.44;694672;28;4320;-54
2021/09/21 01:35:20;;;;;;;6.15;5.07;;;;;;;11.63;77.93;101923.09;695370;28;1180;-51
2021/09/21 01:35:41;;;;;;;6.63;5.27;;;;;;;11.65;78.32;101918.75;694683;28;1452;-56
2021/09/21 01:36:04;;;;;;;7.38;5.40;;;;;;;11.62;78.37;101923.97;694761;28;1268;-52
2021/09/21 01:36:26;;;;;;;7.47;4.97;;;;;;;11.58;77.52;101913.44;695445;28;1165;-56
2021/09/21 01:36:47;;;;;;;7.57;5.28;;;;;;;11.58;77.22;101918.66;697050;28;1198;-54
2021/09/21 01:37:12;;;;;;;7.38;5.47;;;;;;;11.62;77.80;101923.97;696530;28;1416;-52
2021/09/21 01:37:32;;;;;;;7.90;5.45;;;;;;;11.60;77.69;101921.31;695008;28;1199;-52
2021/09/21 01:37:53;;;;;;;7.10;5.50;;;;;;;11.61;78.50;101920.44;691358;28;4873;-53
2021/09/21 01:38:13;;;;;;;6.78;5.10;;;;;;;11.61;77.82;101916.97;691620;28;3484;-56
2021/09/21 01:38:34;;;;;;;6.60;5.17;;;;;;;11.62;77.80;101918.72;692451;28;1390;-53
2021/09/21 01:38:55;;;;;;;7.50;5.30;;;;;;;11.63;77.54;101916.13;691662;28;1431;-54
2021/09/21 01:39:15;;;;;;;6.95;5.60;;;;;;;11.67;78.13;101922.25;692112;28;1043;-54
2021/09/21 01:39:35;;;;;;;7.80;5.50;;;;;;;11.67;77.47;101919.63;694512;28;1130;-55
2021/09/21 01:39:56;;;;;;;8.48;5.68;;;;;;;11.67;78.32;101923.16;694244;28;1111;-54
2021/09/21 01:40:18;;;;;;;7.63;5.53;;;;;;;11.66;77.81;101920.50;695283;28;1194;-55
2021/09/21 01:40:38;;;;;;;7.13;5.45;;;;;;;11.65;77.46;101922.25;694465;28;1122;-51
2021/09/21 01:40:58;;;;;;;6.97;5.37;;;;;;;11.67;76.92;101917.00;697079;28;4436;-52
2021/09/21 01:41:20;;;;;;;7.28;5.43;;;;;;;11.66;77.72;101917.88;697106;28;3734;-53